Aeroporto :
LOGIN :

Iscrizione | Disclaimer

   EN    FR    IT 

 










Sommario :    VFR   VFR Marginale   IFR   IFR Intensivo   IFR Molto Intensivo
Visibilità : 
Base nubi : 
>= 8 km
>= 3000ft
5 / 8 km
1000 / 3000 ft
1500m / 5 km
500 / 1000 ft
800 / 1500m
200 / 500 ft
< 800m
< 200 ft
Simboli :   Temporali  Nebbia  Neve Forte  Precipitazioni Forti  Vento > 20 kt
SIGMETs :   Varie  Temporali  Ghiacco  Turbolenza  Onda orograficha  Ceneri Vulcaniche






- Altitudine del aeroporto : 463 ft
- Codice IATA : QAS


DAOI - Chlef Int.

ULTIMO METAR :
  • 171400Z 22008KT 8000 NSC 20/10 Q1024

METARs OBSOLETI :
  • 171300Z VRB03KT 7000 NSC 19/10 Q1025
  • 171200Z 00000KT 6000 SCT010 16/12 Q1027

TAF TAF DAOI
Valido dal 17 a 12 ore il 18 a 12 ore UTC


171100Z 1712/1812 VRB02KT 6000 SCT010
TEMPO 1712/1715 3000 BR
BECMG 1716/1719 8000 NSC
TEMPO 1800/1809 3000 BR SCT010
PROB40
TEMPO 1803/1809 0500 FG



MetMap, La meteo Aeronautica in un colpo d'occhio ! - Copyright ORBIFLY Dicembre 2007 - Disclaimer

ORBIFLY MET'MAP TEAM :

Programmazione e sviluppo : Alexandra Zaïnal
Concezione : Baudouin d'Aumeries
Aiuto per la programmazione : Marc-Olivier Méhu
Supporto tecnico e logistico : Manuel Goepfert
Aiuto per la traduzione : Arnaldo La Scala

Contatto : metmap@orbifly.com




FONTI E CREDITI :

   NOAA